Time;durP1;ratioP1;P1;durP2;ratioP2;P2;SDS_P1;SDS_P2;PMS_P1;PMS_P2;Temp;Humidity;BMP_temperature;BMP_pressure;BME280_temperature;BME280_humidity;BME280_pressure;Samples;Min_cycle;Max_cycle;Signal;HPM_P1;HPM_P2
2023/12/08 00:02:14;;;;;;;1.83;1.23;;;21.10;49.60;;;;;;5041480;28;20028;-66
2023/12/08 00:04:40;;;;;;;2.00;1.30;;;21.10;49.60;;;;;;5037656;28;20159;-70
2023/12/08 00:07:05;;;;;;;2.60;1.38;;;21.10;49.60;;;;;;5040897;28;20041;-66
2023/12/08 00:09:31;;;;;;;2.13;1.42;;;21.00;50.10;;;;;;5040703;28;20025;-66
2023/12/08 00:11:57;;;;;;;2.05;1.35;;;21.10;49.60;;;;;;5042271;28;20029;-66
2023/12/08 00:14:23;;;;;;;2.28;1.40;;;21.00;49.60;;;;;;5039921;28;20036;-66
2023/12/08 00:16:49;;;;;;;2.95;1.35;;;21.00;49.60;;;;;;5038455;28;20034;-66
2023/12/08 00:19:14;;;;;;;2.28;1.50;;;21.00;49.70;;;;;;5037286;28;20029;-67
2023/12/08 00:21:40;;;;;;;2.63;1.63;;;21.00;49.70;;;;;;5041251;28;20147;-66
2023/12/08 00:24:06;;;;;;;2.08;1.40;;;21.00;49.70;;;;;;5038540;28;20029;-67
2023/12/08 00:26:31;;;;;;;2.03;1.45;;;20.90;49.60;;;;;;5040844;28;20033;-66
2023/12/08 00:28:57;;;;;;;1.60;1.20;;;20.90;49.60;;;;;;5039302;28;20083;-66
2023/12/08 00:31:23;;;;;;;1.90;1.40;;;20.90;49.70;;;;;;5039824;28;20437;-66
2023/12/08 00:33:48;;;;;;;2.15;1.30;;;20.90;49.70;;;;;;5034640;28;20026;-66
2023/12/08 00:36:18;;;;;;;1.90;1.33;;;20.90;49.70;;;;;;5042112;28;20120;-66
2023/12/08 00:38:47;;;;;;;2.08;1.40;;;20.90;49.70;;;;;;5038479;28;20033;-66
2023/12/08 00:41:13;;;;;;;1.95;1.27;;;20.80;49.70;;;;;;5038068;28;20083;-66
2023/12/08 00:43:38;;;;;;;2.17;1.27;;;20.80;49.70;;;;;;5038814;28;20079;-66
2023/12/08 00:46:04;;;;;;;2.70;1.42;;;20.80;49.80;;;;;;5038600;28;20025;-66
2023/12/08 00:48:30;;;;;;;2.55;1.40;;;20.80;49.80;;;;;;5036968;28;20394;-66
2023/12/08 00:50:55;;;;;;;2.67;1.42;;;20.80;49.80;;;;;;5038665;28;20488;-66
2023/12/08 00:53:21;;;;;;;2.00;1.27;;;20.80;49.90;;;;;;5038213;28;20045;-66
2023/12/08 00:55:47;;;;;;;2.90;1.40;;;20.70;49.80;;;;;;5036568;28;20422;-67
2023/12/08 00:58:15;;;;;;;2.28;1.40;;;20.70;49.80;;;;;;5037064;28;20039;-66
2023/12/08 01:00:40;;;;;;;2.10;1.30;;;20.70;49.90;;;;;;5037161;28;20504;-67
2023/12/08 01:03:06;;;;;;;2.10;1.48;;;20.70;49.90;;;;;;5039248;28;20108;-66
2023/12/08 01:05:32;;;;;;;2.00;1.30;;;20.70;49.90;;;;;;5038198;28;20044;-67
2023/12/08 01:07:57;;;;;;;1.77;1.23;;;20.70;49.90;;;;;;5038029;28;20025;-66
2023/12/08 01:10:23;;;;;;;3.22;1.45;;;20.60;49.90;;;;;;5038901;28;20021;-67
2023/12/08 01:12:48;;;;;;;1.35;1.10;;;20.60;50.00;;;;;;5039748;28;20512;-67
2023/12/08 01:15:14;;;;;;;1.50;1.20;;;20.60;49.90;;;;;;5036558;28;20035;-67
2023/12/08 01:17:40;;;;;;;1.90;1.30;;;20.60;50.00;;;;;;5035971;28;20036;-67
2023/12/08 01:20:08;;;;;;;2.17;1.20;;;20.60;50.00;;;;;;5038163;28;20108;-69
2023/12/08 01:22:34;;;;;;;2.50;1.33;;;20.60;50.00;;;;;;5070273;28;20454;-69
2023/12/08 01:24:59;;;;;;;2.08;1.35;;;20.60;50.00;;;;;;5041188;28;20021;-69
2023/12/08 01:27:25;;;;;;;2.00;1.20;;;20.50;50.00;;;;;;5037699;28;20468;-69
2023/12/08 01:29:51;;;;;;;1.95;1.30;;;20.60;50.00;;;;;;5040392;28;20030;-69
2023/12/08 01:32:17;;;;;;;2.80;1.50;;;20.50;50.00;;;;;;5042614;28;20350;-67
2023/12/08 01:34:43;;;;;;;1.58;1.17;;;20.50;50.00;;;;;;5039910;28;20377;-67
2023/12/08 01:37:08;;;;;;;1.77;1.33;;;20.50;50.00;;;;;;5042138;28;20024;-67
2023/12/08 01:39:34;;;;;;;2.08;1.30;;;20.50;50.00;;;;;;5042107;28;20039;-66
2023/12/08 01:42:00;;;;;;;1.58;1.27;;;20.40;50.00;;;;;;5040180;28;20444;-67
2023/12/08 01:44:25;;;;;;;2.15;1.45;;;20.50;50.10;;;;;;5041172;28;20099;-66
2023/12/08 01:46:52;;;;;;;2.00;1.30;;;20.40;50.00;;;;;;5040480;28;20033;-66
2023/12/08 01:49:18;;;;;;;2.00;1.30;;;20.40;50.10;;;;;;5040589;28;20033;-66
2023/12/08 01:51:44;;;;;;;2.30;1.50;;;20.40;50.10;;;;;;5041767;28;20036;-67
2023/12/08 01:54:10;;;;;;;1.80;1.20;;;20.40;50.10;;;;;;5042894;28;20029;-67
2023/12/08 01:56:36;;;;;;;2.00;1.40;;;20.40;50.10;;;;;;5040822;28;20041;-66
2023/12/08 01:59:02;;;;;;;1.98;1.27;;;20.40;50.10;;;;;;5041990;28;20103;-66
2023/12/08 02:01:28;;;;;;;1.50;1.20;;;20.40;50.60;;;;;;5043917;28;20478;-66
2023/12/08 02:03:55;;;;;;;1.85;1.15;;;20.40;50.10;;;;;;5042433;28;20476;-66
2023/12/08 02:06:20;;;;;;;2.15;1.40;;;20.40;50.10;;;;;;5040521;28;20021;-67
2023/12/08 02:08:49;;;;;;;1.83;1.30;;;20.30;50.10;;;;;;5040510;28;20510;-66
2023/12/08 02:11:16;;;;;;;1.50;1.20;;;20.40;50.10;;;;;;5042654;28;20109;-66
2023/12/08 02:13:42;;;;;;;2.08;1.30;;;20.30;50.10;;;;;;5040356;28;20140;-67
2023/12/08 02:16:18;;;;;;;1.80;1.20;;;20.30;50.10;;;;;;5041286;28;20504;-66
2023/12/08 02:18:44;;;;;;;1.70;1.20;;;20.30;50.10;;;;;;5042702;28;20021;-67
2023/12/08 02:21:13;;;;;;;1.60;1.20;;;20.30;50.20;;;;;;5039680;28;20437;-67
2023/12/08 02:23:42;;;;;;;2.08;1.45;;;20.30;50.20;;;;;;5040381;28;20105;-67
2023/12/08 02:26:10;;;;;;;2.03;1.40;;;20.30;50.20;;;;;;5041759;28;20033;-66
2023/12/08 02:28:35;;;;;;;1.98;1.27;;;20.30;50.70;;;;;;5041153;28;20032;-67
2023/12/08 02:31:05;;;;;;;1.80;1.20;;;20.30;50.20;;;;;;5039863;28;20033;-65
2023/12/08 02:33:32;;;;;;;;;;;20.20;50.20;;;;;;5049255;28;20055;-69
2023/12/08 02:36:00;;;;;;;1.70;1.15;;;20.20;50.20;;;;;;5039381;28;20389;-69
2023/12/08 02:38:27;;;;;;;2.40;1.50;;;20.20;50.20;;;;;;5043370;28;20022;-70
2023/12/08 02:40:55;;;;;;;1.80;1.20;;;20.20;50.20;;;;;;5040605;28;20327;-70
2023/12/08 02:43:20;;;;;;;1.50;1.20;;;20.20;50.20;;;;;;5040828;28;20474;-69
2023/12/08 02:45:46;;;;;;;2.00;1.30;;;20.20;50.20;;;;;;5041592;28;20119;-69
2023/12/08 02:48:12;;;;;;;2.13;1.38;;;20.20;50.20;;;;;;5039953;28;20052;-69
2023/12/08 02:50:37;;;;;;;1.92;1.30;;;20.20;50.20;;;;;;5040961;28;20559;-69
2023/12/08 02:53:03;;;;;;;1.70;1.20;;;20.20;50.20;;;;;;5040904;28;20060;-69
2023/12/08 02:55:29;;;;;;;1.98;1.25;;;20.20;50.30;;;;;;5039319;28;20532;-69
2023/12/08 02:57:54;;;;;;;1.95;1.25;;;20.10;50.20;;;;;;5039145;28;20119;-69
2023/12/08 03:00:20;;;;;;;1.88;1.20;;;20.10;50.20;;;;;;5041656;28;20465;-69
2023/12/08 03:02:45;;;;;;;1.50;1.00;;;20.10;50.30;;;;;;5038100;28;20027;-70
2023/12/08 03:05:11;;;;;;;1.73;1.30;;;20.10;50.30;;;;;;5037194;28;20014;-69
2023/12/08 03:07:37;;;;;;;1.45;1.20;;;20.10;50.20;;;;;;5039587;28;20394;-70
2023/12/08 03:10:02;;;;;;;1.85;1.17;;;20.10;50.30;;;;;;5038855;28;20474;-69
2023/12/08 03:12:28;;;;;;;1.98;1.23;;;20.10;50.30;;;;;;5039860;28;20082;-69
2023/12/08 03:14:53;;;;;;;1.92;1.30;;;20.10;50.30;;;;;;5043298;28;20528;-70
2023/12/08 03:17:19;;;;;;;2.05;1.23;;;20.00;50.30;;;;;;5038673;28;20029;-68
2023/12/08 03:19:45;;;;;;;1.58;1.25;;;20.00;50.30;;;;;;5038566;28;20109;-69
2023/12/08 03:22:12;;;;;;;1.42;1.08;;;20.10;50.30;;;;;;5038938;28;20500;-69
2023/12/08 03:24:38;;;;;;;1.70;1.20;;;20.00;50.30;;;;;;5041306;28;20017;-69
2023/12/08 03:27:04;;;;;;;1.50;1.10;;;20.00;50.30;;;;;;5038502;28;20036;-69
2023/12/08 03:29:29;;;;;;;1.60;1.17;;;20.00;50.30;;;;;;5040125;28;20089;-68
2023/12/08 03:31:55;;;;;;;1.83;1.20;;;20.00;50.40;;;;;;5039281;28;20025;-69
2023/12/08 03:34:20;;;;;;;1.52;1.10;;;20.00;50.30;;;;;;5037149;28;20036;-69
2023/12/08 03:36:46;;;;;;;1.60;1.10;;;20.00;50.30;;;;;;5036548;28;20033;-69
2023/12/08 03:39:11;;;;;;;1.27;1.15;;;20.00;50.30;;;;;;5039298;28;20512;-68
2023/12/08 03:41:37;;;;;;;1.50;1.10;;;20.00;50.30;;;;;;5041108;28;20168;-64
2023/12/08 03:44:03;;;;;;;1.92;1.40;;;20.00;50.40;;;;;;5037831;28;20061;-66
2023/12/08 03:46:28;;;;;;;1.77;1.08;;;20.00;50.40;;;;;;5038455;28;20033;-63
2023/12/08 03:48:54;;;;;;;1.90;1.20;;;20.00;50.40;;;;;;5038097;28;20515;-63
2023/12/08 03:51:20;;;;;;;1.80;1.20;;;20.00;50.40;;;;;;5039656;28;20040;-67
2023/12/08 03:53:46;;;;;;;1.83;1.30;;;20.00;50.40;;;;;;5039291;28;20071;-63
2023/12/08 03:56:12;;;;;;;1.52;1.20;;;20.00;50.40;;;;;;5045781;28;20094;-64
2023/12/08 03:58:37;;;;;;;1.80;1.30;;;19.90;50.40;;;;;;5036967;28;20028;-63
2023/12/08 04:01:03;;;;;;;1.50;1.15;;;19.90;50.40;;;;;;5038943;28;20032;-64
2023/12/08 04:03:29;;;;;;;1.88;1.30;;;19.90;50.40;;;;;;5038203;28;20076;-70
2023/12/08 04:05:54;;;;;;;1.70;1.25;;;19.90;50.50;;;;;;5039713;28;20949;-69
2023/12/08 04:08:20;;;;;;;1.48;1.10;;;19.90;50.40;;;;;;5040369;28;20837;-69
2023/12/08 04:10:47;;;;;;;1.48;1.05;;;19.90;50.40;;;;;;5039016;28;20113;-70
2023/12/08 04:13:12;;;;;;;1.50;1.08;;;19.90;50.50;;;;;;5041234;28;20485;-69
2023/12/08 04:15:38;;;;;;;1.83;1.20;;;19.90;50.40;;;;;;5039005;28;20029;-69
2023/12/08 04:18:04;;;;;;;1.60;1.20;;;19.90;50.50;;;;;;5041519;28;20203;-69
2023/12/08 04:20:31;;;;;;;1.35;1.10;;;19.90;50.50;;;;;;5038167;28;20029;-70
2023/12/08 04:22:56;;;;;;;1.40;1.00;;;19.90;50.50;;;;;;5036849;28;20468;-69
2023/12/08 04:25:22;;;;;;;1.63;1.02;;;19.90;50.50;;;;;;5039101;28;20022;-69
2023/12/08 04:27:48;;;;;;;1.35;1.02;;;19.80;50.40;;;;;;5037897;28;20495;-70
2023/12/08 04:30:14;;;;;;;1.50;1.05;;;19.80;50.40;;;;;;5040150;28;20045;-69
2023/12/08 04:32:39;;;;;;;1.10;0.90;;;19.90;50.50;;;;;;5041584;28;20037;-69
2023/12/08 04:35:05;;;;;;;1.38;1.00;;;19.80;50.40;;;;;;5039031;28;20029;-69
2023/12/08 04:37:31;;;;;;;1.42;1.00;;;19.80;50.50;;;;;;5036904;28;20025;-69
2023/12/08 04:39:57;;;;;;;1.60;1.10;;;19.80;50.50;;;;;;5040551;28;20108;-69
2023/12/08 04:42:22;;;;;;;1.25;0.98;;;19.80;50.50;;;;;;5040453;28;20033;-70
2023/12/08 04:44:48;;;;;;;1.50;1.10;;;19.80;50.50;;;;;;5036940;28;20056;-70
2023/12/08 04:47:13;;;;;;;1.40;1.00;;;19.80;50.50;;;;;;5035668;28;20481;-69
2023/12/08 04:49:39;;;;;;;1.20;1.00;;;19.80;50.50;;;;;;5038284;28;20104;-69
2023/12/08 04:52:05;;;;;;;1.17;1.00;;;19.80;50.60;;;;;;5038380;28;20457;-69
2023/12/08 04:54:30;;;;;;;1.10;0.88;;;19.80;50.60;;;;;;5038638;28;20083;-69
2023/12/08 04:56:56;;;;;;;1.02;0.90;;;19.70;50.60;;;;;;5038611;28;20108;-69
2023/12/08 04:59:22;;;;;;;1.42;1.08;;;19.70;50.60;;;;;;5039925;28;20022;-69
2023/12/08 05:01:51;;;;;;;1.30;0.88;;;19.70;50.60;;;;;;5038152;28;20088;-69
2023/12/08 05:04:18;;;;;;;1.35;1.00;;;19.70;50.70;;;;;;5040543;28;20032;-69
2023/12/08 05:06:44;;;;;;;1.50;1.00;;;19.70;50.80;;;;;;5041089;28;20497;-69
2023/12/08 05:09:13;;;;;;;1.13;1.00;;;19.70;50.90;;;;;;5044955;28;20029;-69
2023/12/08 05:11:39;;;;;;;1.50;1.02;;;19.70;50.90;;;;;;5040613;28;20045;-64
2023/12/08 05:14:04;;;;;;;1.20;0.90;;;19.70;50.90;;;;;;5041846;28;20071;-65
2023/12/08 05:16:30;;;;;;;1.25;1.00;;;19.70;51.00;;;;;;5042469;28;20029;-64
2023/12/08 05:18:56;;;;;;;1.33;0.98;;;19.70;51.10;;;;;;5041335;28;20034;-64
2023/12/08 05:21:22;;;;;;;1.05;0.93;;;19.60;51.10;;;;;;5041699;28;20102;-65
2023/12/08 05:23:48;;;;;;;1.20;1.00;;;19.60;51.10;;;;;;5040066;28;20037;-65
2023/12/08 05:26:13;;;;;;;2.22;1.20;;;19.60;51.70;;;;;;5042051;28;20064;-65
2023/12/08 05:28:39;;;;;;;1.70;1.15;;;19.60;51.20;;;;;;5042210;28;20029;-64
2023/12/08 05:31:05;;;;;;;1.38;1.00;;;19.60;51.20;;;;;;5041329;28;20060;-65
2023/12/08 05:33:31;;;;;;;1.17;0.90;;;19.60;51.20;;;;;;5043366;28;20481;-63
2023/12/08 05:35:57;;;;;;;1.10;0.90;;;19.60;51.20;;;;;;5041285;28;20033;-65
2023/12/08 05:38:22;;;;;;;1.50;1.00;;;19.60;51.30;;;;;;5041128;28;20397;-64
2023/12/08 05:40:48;;;;;;;1.35;1.00;;;19.60;51.30;;;;;;5041477;28;20021;-66
2023/12/08 05:43:14;;;;;;;1.00;0.90;;;19.50;51.20;;;;;;5042307;28;20216;-65
2023/12/08 05:45:39;;;;;;;1.40;1.02;;;19.50;51.30;;;;;;5041925;28;20036;-67
2023/12/08 05:48:05;;;;;;;1.40;1.00;;;19.60;51.40;;;;;;5048834;28;20025;-65
2023/12/08 05:50:31;;;;;;;1.27;1.00;;;19.50;51.40;;;;;;5040798;28;20108;-64
2023/12/08 05:52:57;;;;;;;1.33;1.10;;;19.60;51.40;;;;;;5039825;28;20469;-64
2023/12/08 05:55:23;;;;;;;1.38;0.90;;;19.60;51.40;;;;;;5045831;28;20033;-64
2023/12/08 05:57:48;;;;;;;1.50;1.10;;;19.50;51.50;;;;;;5040518;28;20032;-64
2023/12/08 06:00:18;;;;;;;1.27;0.95;;;19.50;51.40;;;;;;5039206;28;20540;-66
2023/12/08 06:02:45;;;;;;;1.50;1.00;;;19.50;51.50;;;;;;5040165;28;20022;-65
2023/12/08 06:05:11;;;;;;;1.63;1.20;;;19.50;51.50;;;;;;5039783;28;20503;-65
2023/12/08 06:07:37;;;;;;;1.75;1.05;;;19.50;51.50;;;;;;5040970;28;20067;-64
2023/12/08 06:10:04;;;;;;;1.38;1.00;;;19.50;51.50;;;;;;5042213;28;20062;-65
2023/12/08 06:12:29;;;;;;;1.52;0.95;;;19.50;51.50;;;;;;5041252;28;20496;-64
2023/12/08 06:14:59;;;;;;;1.52;1.02;;;19.50;51.60;;;;;;5039939;28;20067;-64
2023/12/08 06:17:25;;;;;;;;;;;19.50;51.60;;;;;;5041357;28;20068;-64
2023/12/08 06:19:50;;;;;;;1.20;1.00;;;19.50;51.60;;;;;;5042752;28;19982;-66
2023/12/08 06:22:16;;;;;;;1.73;1.02;;;19.50;51.80;;;;;;5040242;28;20036;-66
2023/12/08 06:24:42;;;;;;;1.75;1.10;;;19.50;51.70;;;;;;5041109;28;20120;-66
2023/12/08 06:27:07;;;;;;;1.50;1.10;;;19.50;51.70;;;;;;5040293;28;20096;-66
2023/12/08 06:29:33;;;;;;;1.88;1.10;;;19.50;51.80;;;;;;5041103;28;20112;-66
2023/12/08 06:31:58;;;;;;;1.90;1.17;;;19.50;51.80;;;;;;5042161;28;20489;-66
2023/12/08 06:34:24;;;;;;;2.00;1.10;;;19.50;51.80;;;;;;5041090;28;20037;-66
2023/12/08 06:36:49;;;;;;;1.73;0.90;;;19.50;51.80;;;;;;5040342;28;20401;-66
2023/12/08 06:39:18;;;;;;;2.60;1.23;;;19.50;51.80;;;;;;5038947;28;20079;-66
2023/12/08 06:41:44;;;;;;;1.48;0.95;;;19.40;51.80;;;;;;5039558;28;20037;-67
2023/12/08 06:44:13;;;;;;;1.77;0.95;;;19.50;51.80;;;;;;5040657;28;20025;-66
2023/12/08 06:46:38;;;;;;;3.03;1.27;;;19.50;51.80;;;;;;5039291;28;20049;-67
2023/12/08 06:49:04;;;;;;;2.38;1.20;;;19.40;51.80;;;;;;5038009;28;20076;-66
2023/12/08 06:51:30;;;;;;;3.72;1.20;;;19.40;51.90;;;;;;5040678;28;20458;-67
2023/12/08 06:53:56;;;;;;;2.63;1.40;;;19.40;51.90;;;;;;5039741;28;20602;-66
2023/12/08 06:56:22;;;;;;;3.40;1.20;;;19.50;51.90;;;;;;5046770;28;20084;-67
2023/12/08 06:58:48;;;;;;;3.28;1.58;;;19.40;51.90;;;;;;5042015;28;20029;-66
2023/12/08 07:01:14;;;;;;;2.78;1.20;;;19.40;51.90;;;;;;5039383;28;20591;-67
2023/12/08 07:03:40;;;;;;;2.80;1.35;;;19.50;52.00;;;;;;5040023;28;20068;-66
2023/12/08 07:06:05;;;;;;;2.75;1.23;;;19.40;51.90;;;;;;5038002;28;20034;-67
2023/12/08 07:08:31;;;;;;;2.70;1.40;;;19.40;51.90;;;;;;5040010;28;20034;-66
2023/12/08 07:10:57;;;;;;;2.58;1.20;;;19.40;52.00;;;;;;5040307;28;20029;-67
2023/12/08 07:13:22;;;;;;;3.85;1.58;;;19.40;52.00;;;;;;5040990;28;20160;-66
2023/12/08 07:15:48;;;;;;;2.85;1.27;;;19.40;52.00;;;;;;5039894;28;20491;-66
2023/12/08 07:18:14;;;;;;;2.65;1.30;;;19.40;52.00;;;;;;5040687;28;20109;-66
2023/12/08 07:20:39;;;;;;;2.65;1.40;;;19.40;52.10;;;;;;5039174;28;20739;-67
2023/12/08 07:23:05;;;;;;;3.10;1.40;;;19.40;52.10;;;;;;5039294;28;20034;-70
2023/12/08 07:25:32;;;;;;;2.85;1.35;;;19.40;52.10;;;;;;5040659;28;20481;-70
2023/12/08 07:27:58;;;;;;;2.47;1.25;;;19.40;52.10;;;;;;5038678;28;20107;-70
2023/12/08 07:30:23;;;;;;;2.60;1.42;;;19.40;52.10;;;;;;5040302;28;20037;-70
2023/12/08 07:32:50;;;;;;;3.22;1.70;;;19.40;52.10;;;;;;5039938;28;20502;-64
2023/12/08 07:35:16;;;;;;;2.90;1.50;;;19.40;52.20;;;;;;5046276;28;20408;-64
2023/12/08 07:37:41;;;;;;;3.30;1.38;;;19.40;52.10;;;;;;5039073;28;20022;-64
2023/12/08 07:40:09;;;;;;;2.95;1.35;;;19.40;52.10;;;;;;5038926;28;20056;-65
2023/12/08 07:42:36;;;;;;;2.42;1.38;;;19.40;52.10;;;;;;5041387;28;20477;-65
2023/12/08 07:45:02;;;;;;;3.00;1.40;;;19.40;52.10;;;;;;5040127;28;20469;-65
2023/12/08 07:47:27;;;;;;;3.10;1.50;;;19.40;52.10;;;;;;5040450;28;20033;-65
2023/12/08 07:49:53;;;;;;;3.60;1.50;;;19.30;52.10;;;;;;5039233;28;20037;-64
2023/12/08 07:52:19;;;;;;;2.80;1.48;;;19.40;52.20;;;;;;5040934;28;20055;-64
2023/12/08 07:54:44;;;;;;;3.08;1.45;;;19.40;52.20;;;;;;5040624;28;20040;-65
2023/12/08 07:57:10;;;;;;;2.67;1.20;;;19.40;52.20;;;;;;5039925;28;20401;-66
2023/12/08 07:59:36;;;;;;;3.05;1.40;;;19.30;52.10;;;;;;5039429;28;20075;-65
2023/12/08 08:02:02;;;;;;;3.13;1.67;;;19.40;52.20;;;;;;5040154;28;20028;-65
2023/12/08 08:04:28;;;;;;;3.03;1.70;;;19.40;52.20;;;;;;5038737;28;20017;-65
2023/12/08 08:06:53;;;;;;;4.65;1.98;;;19.40;52.20;;;;;;5037557;28;20485;-65
2023/12/08 08:09:19;;;;;;;2.70;1.40;;;19.40;52.20;;;;;;5039918;28;20111;-64
2023/12/08 08:11:44;;;;;;;3.13;1.58;;;19.40;52.20;;;;;;5038674;28;20040;-65
2023/12/08 08:14:10;;;;;;;2.20;1.38;;;19.30;52.20;;;;;;5046058;28;20029;-65
2023/12/08 08:16:36;;;;;;;4.00;1.70;;;19.30;52.20;;;;;;5039222;28;20028;-64
2023/12/08 08:19:02;;;;;;;2.97;1.50;;;19.30;52.20;;;;;;5038423;28;20028;-64
2023/12/08 08:21:28;;;;;;;3.15;1.30;;;19.30;52.20;;;;;;5038203;28;20035;-64
2023/12/08 08:23:54;;;;;;;3.55;1.77;;;19.30;52.70;;;;;;5038775;28;20032;-66
2023/12/08 08:26:19;;;;;;;3.17;1.70;;;19.30;52.20;;;;;;5039002;28;20027;-66
2023/12/08 08:28:45;;;;;;;2.97;1.30;;;19.30;52.20;;;;;;5039659;28;20029;-67
2023/12/08 08:31:12;;;;;;;2.90;1.42;;;19.30;52.20;;;;;;5037343;28;20389;-67
2023/12/08 08:33:38;;;;;;;3.40;1.38;;;19.30;52.20;;;;;;5038999;28;20021;-67
2023/12/08 08:36:05;;;;;;;3.15;1.33;;;19.30;52.20;;;;;;5036934;28;20500;-67
2023/12/08 08:38:31;;;;;;;2.45;1.50;;;19.30;52.20;;;;;;5069981;28;20052;-67
2023/12/08 08:40:57;;;;;;;2.78;1.50;;;19.30;52.30;;;;;;5039444;28;20055;-66
2023/12/08 08:43:22;;;;;;;2.53;1.42;;;19.30;52.30;;;;;;5039641;28;20025;-67
2023/12/08 08:45:48;;;;;;;2.50;1.20;;;19.30;52.30;;;;;;5038251;28;20029;-67
2023/12/08 08:48:14;;;;;;;2.60;1.40;;;19.30;52.30;;;;;;5037162;28;20132;-66
2023/12/08 08:50:39;;;;;;;3.42;1.50;;;19.30;52.20;;;;;;5037688;28;20041;-66
2023/12/08 08:53:05;;;;;;;2.92;1.42;;;19.30;52.30;;;;;;5036625;28;20028;-68
2023/12/08 08:55:31;;;;;;;2.83;1.30;;;19.30;52.30;;;;;;5039270;28;20397;-66
2023/12/08 08:57:56;;;;;;;2.90;1.48;;;19.30;52.30;;;;;;5039175;28;20040;-67
2023/12/08 09:00:25;;;;;;;2.92;1.58;;;19.30;52.30;;;;;;5039358;28;20478;-67
2023/12/08 09:02:51;;;;;;;2.28;1.30;;;19.30;52.30;;;;;;5038297;28;20025;-66
2023/12/08 09:05:18;;;;;;;2.15;1.30;;;19.30;52.30;;;;;;5035718;28;20029;-67
2023/12/08 09:07:44;;;;;;;2.33;1.30;;;19.30;52.30;;;;;;5035878;28;20025;-67
2023/12/08 09:10:10;;;;;;;2.45;1.30;;;19.30;52.30;;;;;;5038188;28;20489;-67
2023/12/08 09:12:36;;;;;;;2.80;1.58;;;19.30;52.30;;;;;;5039260;28;20124;-66
2023/12/08 09:15:02;;;;;;;3.10;1.50;;;19.30;52.40;;;;;;5038614;28;20504;-67
2023/12/08 09:17:27;;;;;;;2.47;1.40;;;19.30;52.30;;;;;;5038465;28;20025;-66
2023/12/08 09:19:53;;;;;;;3.08;1.25;;;19.20;52.20;;;;;;5037278;28;20025;-66
2023/12/08 09:22:18;;;;;;;2.20;1.40;;;19.30;52.30;;;;;;5040071;28;20155;-66
2023/12/08 09:24:44;;;;;;;3.05;1.40;;;19.30;52.30;;;;;;5035487;28;20034;-66
2023/12/08 09:27:10;;;;;;;2.70;1.60;;;19.20;52.30;;;;;;5037058;28;20119;-66
2023/12/08 09:29:36;;;;;;;2.40;1.50;;;19.20;52.30;;;;;;5040547;28;20477;-66
2023/12/08 09:32:02;;;;;;;2.58;1.38;;;19.20;52.30;;;;;;5035731;28;20061;-66
2023/12/08 09:34:27;;;;;;;2.45;1.40;;;19.20;52.30;;;;;;5037592;28;20083;-65
2023/12/08 09:36:53;;;;;;;2.75;1.40;;;19.20;52.30;;;;;;5039398;28;20060;-67
2023/12/08 09:39:19;;;;;;;2.63;1.40;;;19.20;52.30;;;;;;5037248;28;20492;-66
2023/12/08 09:41:46;;;;;;;2.10;1.30;;;19.20;52.30;;;;;;5037822;28;20485;-65
2023/12/08 09:44:13;;;;;;;2.60;1.30;;;19.20;52.30;;;;;;5038022;28;20023;-66
2023/12/08 09:46:44;;;;;;;2.72;1.70;;;19.20;52.30;;;;;;5037067;28;20931;-64
2023/12/08 09:49:25;;;;;;;3.38;1.63;;;19.20;52.30;;;;;;5039528;28;20492;-63
2023/12/08 09:51:50;;;;;;;2.63;1.38;;;19.20;52.30;;;;;;5043295;28;20051;-64
2023/12/08 09:54:16;;;;;;;3.22;1.33;;;19.20;52.30;;;;;;5039939;28;20029;-63
2023/12/08 09:56:43;;;;;;;2.72;1.45;;;19.20;52.30;;;;;;5044641;28;20099;-63
2023/12/08 09:59:11;;;;;;;2.33;1.45;;;19.20;52.30;;;;;;5042668;28;20495;-64
2023/12/08 10:01:36;;;;;;;2.10;1.17;;;19.20;52.30;;;;;;5041644;28;20186;-64
2023/12/08 10:04:02;;;;;;;2.35;1.45;;;19.20;52.30;;;;;;5043081;28;20541;-65
2023/12/08 10:06:30;;;;;;;2.63;1.40;;;19.20;52.30;;;;;;5041497;28;20027;-65
2023/12/08 10:08:57;;;;;;;3.20;1.52;;;19.20;52.30;;;;;;5040842;28;20025;-64
2023/12/08 10:11:23;;;;;;;2.47;1.35;;;19.20;52.30;;;;;;5042574;28;20033;-64
2023/12/08 10:13:49;;;;;;;1.95;1.30;;;19.20;52.30;;;;;;5041882;28;20380;-64
2023/12/08 10:16:15;;;;;;;2.95;1.40;;;19.20;52.30;;;;;;5039425;28;20068;-63
2023/12/08 10:18:41;;;;;;;2.33;1.40;;;19.20;52.30;;;;;;5039541;28;20065;-63
2023/12/08 10:21:18;;;;;;;3.38;1.40;;;19.20;52.30;;;;;;5042676;28;20029;-62
2023/12/08 10:23:45;;;;;;;2.40;1.30;;;19.20;52.30;;;;;;5037651;28;20025;-64
2023/12/08 10:26:12;;;;;;;2.80;1.60;;;19.20;52.30;;;;;;5041319;28;20687;-63
2023/12/08 10:28:39;;;;;;;2.80;1.48;;;19.20;52.30;;;;;;5042641;28;20100;-64
2023/12/08 10:31:05;;;;;;;2.80;1.45;;;19.20;52.30;;;;;;5039007;28;20485;-65
2023/12/08 10:33:31;;;;;;;2.63;1.40;;;19.20;52.30;;;;;;5042441;28;20104;-63
2023/12/08 10:35:57;;;;;;;2.50;1.40;;;19.20;52.30;;;;;;5039927;28;20116;-64
2023/12/08 10:38:23;;;;;;;2.67;1.50;;;19.20;52.30;;;;;;5037250;28;20040;-63
2023/12/08 10:40:50;;;;;;;2.53;1.50;;;19.20;52.30;;;;;;5042118;28;20021;-63
2023/12/08 10:43:25;;;;;;;2.38;1.50;;;19.20;52.30;;;;;;5037037;28;20033;-65
2023/12/08 10:45:54;;;;;;;1.98;1.30;;;19.20;52.30;;;;;;5042017;28;20163;-63
2023/12/08 10:48:21;;;;;;;2.78;1.50;;;19.20;52.30;;;;;;5039275;28;20480;-63
2023/12/08 10:50:48;;;;;;;1.98;1.23;;;19.20;52.30;;;;;;5040329;28;20480;-64
2023/12/08 10:53:16;;;;;;;2.15;1.20;;;19.20;52.30;;;;;;5038429;28;20065;-63
2023/12/08 10:55:42;;;;;;;1.90;1.30;;;19.20;52.30;;;;;;5041004;28;20465;-65
2023/12/08 10:58:14;;;;;;;2.65;1.35;;;19.20;52.40;;;;;;5038651;28;20036;-65
2023/12/08 11:00:41;;;;;;;2.10;1.38;;;19.10;52.30;;;;;;5039746;28;20108;-66
2023/12/08 11:03:09;;;;;;;1.85;1.25;;;19.20;52.30;;;;;;5038953;28;20068;-65
2023/12/08 11:05:43;;;;;;;2.40;1.50;;;19.20;52.30;;;;;;5046874;28;20511;-65
2023/12/08 11:08:12;;;;;;;1.80;1.17;;;19.10;52.30;;;;;;5040277;28;20048;-65
2023/12/08 11:10:42;;;;;;;2.33;1.30;;;19.20;52.30;;;;;;5041193;28;20112;-65
2023/12/08 11:13:11;;;;;;;3.03;1.38;;;19.20;52.80;;;;;;5039652;28;20516;-66
2023/12/08 11:15:40;;;;;;;;;;;19.10;52.30;;;;;;5039159;28;20044;-65
2023/12/08 11:18:35;;;;;;;2.50;1.20;;;19.10;52.30;;;;;;5040243;28;19912;-66
2023/12/08 11:21:03;;;;;;;2.60;1.30;;;19.20;52.30;;;;;;5039490;28;20283;-65
2023/12/08 11:23:29;;;;;;;2.50;1.27;;;19.10;52.30;;;;;;5038698;28;20036;-65
2023/12/08 11:26:32;;;;;;;3.17;1.48;;;19.10;52.30;;;;;;5041544;28;20478;-66
2023/12/08 11:29:09;;;;;;;2.72;1.40;;;19.10;52.30;;;;;;5039641;28;20133;-66
2023/12/08 11:31:46;;;;;;;2.08;1.25;;;19.10;52.30;;;;;;5039735;28;20030;-65
2023/12/08 11:34:17;;;;;;;1.98;1.30;;;19.10;52.30;;;;;;5039116;28;20500;-66
2023/12/08 11:36:46;;;;;;;2.08;1.30;;;19.10;52.30;;;;;;5041415;28;20121;-66
2023/12/08 11:39:30;;;;;;;2.33;1.40;;;19.10;52.30;;;;;;5037307;28;20032;-66
2023/12/08 11:41:56;;;;;;;1.70;1.20;;;19.10;52.30;;;;;;5046931;28;20060;-66
2023/12/08 11:44:22;;;;;;;2.47;1.40;;;19.10;52.30;;;;;;5041654;28;20378;-66
2023/12/08 11:46:51;;;;;;;2.60;1.42;;;19.10;52.30;;;;;;5046431;28;20135;-66
2023/12/08 11:49:18;;;;;;;;;;;19.10;52.30;;;;;;5041628;28;20037;-66
2023/12/08 11:52:18;;;;;;;1.90;1.20;;;19.10;52.30;;;;;;5039583;28;19917;-66
2023/12/08 11:55:11;;;;;;;1.98;1.40;;;19.10;52.30;;;;;;5038004;28;20052;-66
2023/12/08 11:57:59;;;;;;;2.50;1.30;;;19.10;52.30;;;;;;5039556;28;20539;-66
2023/12/08 12:00:28;;;;;;;2.07;1.10;;;19.10;52.30;;;;;;5038078;28;20497;-66
2023/12/08 12:02:55;;;;;;;2.30;1.30;;;19.10;52.30;;;;;;5038407;28;20434;-66
2023/12/08 12:05:21;;;;;;;2.15;1.40;;;19.10;52.30;;;;;;5039826;28;20499;-66
2023/12/08 12:07:51;;;;;;;2.55;1.40;;;19.10;52.40;;;;;;5038753;28;20147;-66
2023/12/08 12:10:23;;;;;;;2.83;1.50;;;19.10;52.30;;;;;;5036535;28;20029;-66
2023/12/08 12:13:01;;;;;;;2.28;1.20;;;19.00;52.80;;;;;;5036316;28;20375;-66
2023/12/08 12:15:30;;;;;;;1.92;1.30;;;19.10;52.40;;;;;;5037555;28;20048;-66
2023/12/08 12:17:56;;;;;;;3.00;1.50;;;19.00;52.30;;;;;;5040458;28;20029;-66
2023/12/08 12:20:21;;;;;;;2.13;1.30;;;19.10;52.40;;;;;;5039384;28;20543;-66
2023/12/08 12:22:47;;;;;;;1.98;1.27;;;19.10;52.30;;;;;;5038634;28;20154;-66
2023/12/08 12:25:13;;;;;;;2.20;1.30;;;19.00;52.80;;;;;;5035487;28;20466;-66
2023/12/08 12:27:47;;;;;;;2.25;1.33;;;19.10;52.40;;;;;;5039319;28;20037;-66
2023/12/08 12:30:13;;;;;;;2.17;1.48;;;19.00;52.30;;;;;;5036669;28;20063;-66
2023/12/08 12:32:40;;;;;;;1.88;1.38;;;19.00;52.30;;;;;;5039887;28;20039;-66
2023/12/08 12:35:07;;;;;;;1.88;1.35;;;19.00;52.30;;;;;;5039363;28;20412;-66
2023/12/08 12:37:33;;;;;;;1.58;1.10;;;19.00;52.30;;;;;;5036004;28;20144;-66
2023/12/08 12:39:58;;;;;;;2.08;1.38;;;19.00;52.40;;;;;;5039073;28;20025;-66
2023/12/08 12:42:24;;;;;;;2.20;1.50;;;19.00;52.30;;;;;;5038058;28;20028;-66
2023/12/08 12:44:50;;;;;;;2.13;1.48;;;19.00;52.30;;;;;;5036088;28;20096;-66
2023/12/08 12:47:26;;;;;;;1.77;1.15;;;19.10;52.30;;;;;;5039707;28;20409;-66